Terminal Aerodrome Forecast
Issued by NWS State College, PA

Home | Current Version | Previous Version | Text Only | Print | Product List | Glossary On
Versions: 1 2 3 4 5 6 7 8 9 10 11 12 13 14 15 16 17 18 19 20 21 22 23 24 25 26 27 28 29 30 31 32 33 34 35 36 37 38 39 40 41 42 43 44 45 46 47 48 49
000
FTUS41 KCTP 201548 AAA
TAFMDT
TAF AMD
KMDT 201548Z 2016/2112 13005KT P6SM SCT025 BKN050
     FM202000 14005KT P6SM -SHRA VCTS BKN050CB
      TEMPO 2020/2024 3SM +SHRA OVC025
     FM210300 15005KT 6SM BR VCSH BKN050
     FM210600 VRB03KT 3SM BR SCT050=

USA.gov is the U.S. government's official web portal to all federal, state and local government web resources and services.